Odyssea Courage — WDF7773 — position and weather

sailwx.info

Track history (hours):
 
Tides and Currents Weather Stations Pressure Air Temp Water Temp Dewpoint Dewpoint Depression Visibility Wind Speed Wind Dir Waves Ship Positions

Odyssea Courage

Owner: Odyssea Marine, Inc., Larose, LA. More information available from US FCC via Universal Licensing System and Coast Guard Vessel Documentation Center.

Last reported at 2018-Apr-13 11:58 UTC. Time now 2018-Jun-19 20:08 UTC.
Position N 29°09' W 090°12'.
Warning: this ship's position is months out of date.

; draft 3.3 m.

Type: Cargo ship. MMSI: 366677000.

Date/timePositionNaut miles runAvg speedWind from/ knotsBaromVisibWave heightAir tempDewpointWater temp
2018-Apr-13 11:58N 29°09' W 090°12'39 1.0
2018-Apr-11 19:24N 29°32' W 090°48'2 4.9
2018-Apr-11 19:00N 29°33' W 090°45'2 4.5
2018-Apr-11 18:31N 29°34' W 090°43'0 0.7
2018-Apr-11 18:00N 29°34' W 090°43'1 2.0
2018-Apr-11 17:31N 29°33' W 090°42'2 4.9
2018-Apr-11 17:01N 29°31' W 090°43'3 6.3
2018-Apr-11 16:30N 29°27' W 090°43'3 5.6
2018-Apr-11 16:00N 29°25' W 090°44'3 5.1
2018-Apr-11 15:26N 29°22' W 090°44'11 6.3
2018-Apr-11 13:40N 29°12' W 090°38'  
2018-Apr-08 05:38N 29°26' W 090°43'1 7.3
2018-Apr-08 05:27N 29°27' W 090°43'3 6.3
2018-Apr-08 05:01N 29°30' W 090°43'3 5.7
2018-Apr-08 04:30N 29°32' W 090°42'2 3.8
2018-Apr-08 04:00N 29°34' W 090°43'1 2.3
2018-Apr-08 03:31N 29°34' W 090°44'2 5.0
2018-Apr-08 03:01N 29°32' W 090°47'3 6.1
2018-Apr-08 02:31N 29°32' W 090°50'4 6.0
2018-Apr-08 01:56N 29°33' W 090°54'  
Track history (hours):
 
Tides and Currents Weather Stations Pressure Air Temp Water Temp Dewpoint Dewpoint Depression Visibility Wind Speed Wind Dir Waves Ship Positions

Odyssea Courage

Owner: Odyssea Marine, Inc., Larose, LA. More information available from US FCC via Universal Licensing System and Coast Guard Vessel Documentation Center.

Last reported at 2018-Apr-13 11:58 UTC. Time now 2018-Jun-19 20:08 UTC.
Position N 29°09' W 090°12'.
Warning: this ship's position is months out of date.

; draft 3.3 m.

Type: Cargo ship. MMSI: 366677000.

Date/timePositionNaut miles runAvg speedWind from/ knotsBaromVisibWave heightAir tempDewpointWater temp
2018-Apr-13 11:58N 29°09' W 090°12'39 1.0
2018-Apr-11 19:24N 29°32' W 090°48'2 4.9
2018-Apr-11 19:00N 29°33' W 090°45'2 4.5
2018-Apr-11 18:31N 29°34' W 090°43'0 0.7
2018-Apr-11 18:00N 29°34' W 090°43'1 2.0
2018-Apr-11 17:31N 29°33' W 090°42'2 4.9
2018-Apr-11 17:01N 29°31' W 090°43'3 6.3
2018-Apr-11 16:30N 29°27' W 090°43'3 5.6
2018-Apr-11 16:00N 29°25' W 090°44'3 5.1
2018-Apr-11 15:26N 29°22' W 090°44'11 6.3
2018-Apr-11 13:40N 29°12' W 090°38'  
2018-Apr-08 05:38N 29°26' W 090°43'1 7.3
2018-Apr-08 05:27N 29°27' W 090°43'3 6.3
2018-Apr-08 05:01N 29°30' W 090°43'3 5.7
2018-Apr-08 04:30N 29°32' W 090°42'2 3.8
2018-Apr-08 04:00N 29°34' W 090°43'1 2.3
2018-Apr-08 03:31N 29°34' W 090°44'2 5.0
2018-Apr-08 03:01N 29°32' W 090°47'3 6.1
2018-Apr-08 02:31N 29°32' W 090°50'4 6.0
2018-Apr-08 01:56N 29°33' W 090°54'  

Dump ship's entire track history